createdAt,value
2018-12-22T00:00:49.221Z,90.72
2018-12-22T00:03:18.049Z,90.33
2018-12-22T00:05:46.726Z,90.26
2018-12-22T00:08:15.496Z,90.18
2018-12-22T00:10:44.116Z,89.95
2018-12-22T00:13:12.849Z,90.20
2018-12-22T00:15:41.553Z,90.52
2018-12-22T00:18:10.284Z,90.78
2018-12-22T00:20:38.996Z,90.81
2018-12-22T00:23:07.878Z,91.03
2018-12-22T00:25:36.516Z,91.11
2018-12-22T00:28:05.439Z,91.19
2018-12-22T00:30:34.200Z,90.74
2018-12-22T00:33:02.949Z,90.19
2018-12-22T00:35:31.606Z,89.90
2018-12-22T00:38:00.254Z,90.11
2018-12-22T00:40:28.982Z,90.39
2018-12-22T00:42:57.817Z,90.58
2018-12-22T00:45:26.556Z,90.53
2018-12-22T00:47:55.313Z,90.48
2018-12-22T00:50:24.128Z,90.10
2018-12-22T00:52:52.823Z,90.11
2018-12-22T00:55:21.564Z,90.18
2018-12-22T00:57:50.397Z,89.65
2018-12-22T01:00:19.102Z,89.76
2018-12-22T01:02:47.823Z,90.01
2018-12-22T01:05:16.538Z,90.42
2018-12-22T01:07:45.333Z,90.76
2018-12-22T01:10:14.088Z,90.23
2018-12-22T01:12:42.871Z,90.29
2018-12-22T01:15:11.598Z,91.10
2018-12-22T01:17:40.314Z,91.13
2018-12-22T01:20:09.643Z,91.30
2018-12-22T01:22:38.413Z,91.53
2018-12-22T01:25:08.331Z,91.52
2018-12-22T01:27:37.096Z,91.65
2018-12-22T01:30:06.537Z,91.45
2018-12-22T01:32:35.263Z,91.26
2018-12-22T01:35:04.214Z,91.64
2018-12-22T01:37:32.965Z,91.76
2018-12-22T01:40:01.673Z,91.75
2018-12-22T01:42:30.592Z,91.87
2018-12-22T01:44:59.315Z,91.77
2018-12-22T01:47:28.052Z,91.94
2018-12-22T01:49:56.681Z,91.91
2018-12-22T01:52:25.422Z,91.61
2018-12-22T01:54:54.120Z,91.39
2018-12-22T01:57:22.836Z,90.72
2018-12-22T01:59:51.540Z,90.62
2018-12-22T02:02:20.366Z,90.09
2018-12-22T02:04:49.041Z,89.97
2018-12-22T02:07:17.755Z,89.99
2018-12-22T02:09:46.467Z,90.28
2018-12-22T02:12:18.013Z,90.51
2018-12-22T02:14:46.712Z,90.89
2018-12-22T02:17:15.448Z,90.75
2018-12-22T02:19:44.128Z,90.39
2018-12-22T02:22:12.768Z,90.44
2018-12-22T02:24:41.438Z,89.92
2018-12-22T02:27:10.153Z,90.03
2018-12-22T02:29:38.880Z,90.02
2018-12-22T02:32:07.705Z,90.29
2018-12-22T02:34:36.468Z,90.74
2018-12-22T02:37:05.224Z,90.59
2018-12-22T02:39:33.980Z,90.73
2018-12-22T02:42:02.671Z,90.98
2018-12-22T02:44:31.414Z,90.75
2018-12-22T02:47:00.120Z,90.79
2018-12-22T02:49:28.915Z,90.68
2018-12-22T02:51:57.606Z,90.54
2018-12-22T02:54:26.355Z,90.64
2018-12-22T02:56:55.132Z,90.48
2018-12-22T02:59:23.873Z,90.64
2018-12-22T03:01:52.590Z,91.07
2018-12-22T03:04:21.321Z,90.73
2018-12-22T03:06:50.108Z,90.21
2018-12-22T03:09:18.915Z,90.42
2018-12-22T03:11:47.583Z,90.40
2018-12-22T03:14:16.256Z,90.89
2018-12-22T03:16:44.946Z,90.35
2018-12-22T03:19:13.708Z,89.93
2018-12-22T03:21:42.690Z,90.27
2018-12-22T03:24:11.468Z,90.04
2018-12-22T03:26:40.262Z,90.04
2018-12-22T03:29:15.459Z,90.07
2018-12-22T03:31:39.894Z,90.04
2018-12-22T03:34:08.673Z,89.99
2018-12-22T03:36:37.327Z,90.33
2018-12-22T03:39:08.502Z,90.73
2018-12-22T03:41:37.336Z,91.07
2018-12-22T03:44:06.178Z,91.27
2018-12-22T03:46:34.916Z,91.32
2018-12-22T03:49:03.607Z,91.74
2018-12-22T03:51:32.345Z,92.00
2018-12-22T03:54:01.028Z,91.94
2018-12-22T03:56:29.804Z,91.72
2018-12-22T03:58:58.498Z,91.26
2018-12-22T04:01:27.224Z,91.26
2018-12-22T04:03:55.965Z,91.35
2018-12-22T04:06:24.814Z,91.42
2018-12-22T04:08:53.559Z,91.56
2018-12-22T04:11:22.271Z,91.98
2018-12-22T04:13:51.012Z,92.18
2018-12-22T04:16:19.747Z,92.55
2018-12-22T04:18:48.489Z,91.82
2018-12-22T04:21:17.139Z,91.40
2018-12-22T04:23:45.953Z,91.62
2018-12-22T04:26:14.685Z,91.56
2018-12-22T04:28:43.430Z,91.51
2018-12-22T04:31:12.124Z,91.85
2018-12-22T04:33:40.898Z,91.89
2018-12-22T04:36:09.658Z,92.03
2018-12-22T04:38:38.478Z,92.03
2018-12-22T04:41:07.192Z,92.40
2018-12-22T04:43:35.855Z,92.18
2018-12-22T04:46:04.737Z,92.26
2018-12-22T04:48:33.500Z,92.39
2018-12-22T04:51:02.136Z,92.58
2018-12-22T04:53:30.875Z,92.29
2018-12-22T04:55:59.568Z,91.95
2018-12-22T04:58:28.300Z,91.64
2018-12-22T05:00:57.048Z,91.59
2018-12-22T05:03:25.688Z,91.30
2018-12-22T05:05:54.525Z,90.51
2018-12-22T05:08:23.259Z,90.74
2018-12-22T05:10:52.097Z,91.04
2018-12-22T05:13:20.887Z,90.79
2018-12-22T05:15:49.689Z,90.96
2018-12-22T05:18:18.517Z,90.42
2018-12-22T05:20:47.223Z,90.13
2018-12-22T05:23:15.905Z,90.46
2018-12-22T05:25:44.640Z,90.25
2018-12-22T05:28:13.386Z,90.45
2018-12-22T05:30:42.103Z,90.33
2018-12-22T05:33:10.803Z,90.29
2018-12-22T05:35:39.478Z,90.38
2018-12-22T05:38:08.232Z,90.41
2018-12-22T05:40:36.957Z,89.97
2018-12-22T05:43:05.817Z,89.71
2018-12-22T05:45:34.616Z,89.62
2018-12-22T05:48:03.316Z,89.86
2018-12-22T05:50:32.122Z,89.43
2018-12-22T05:53:00.833Z,89.37
2018-12-22T05:55:29.561Z,88.89
2018-12-22T05:57:58.245Z,89.06
2018-12-22T06:00:26.979Z,89.10
2018-12-22T06:02:55.755Z,89.55
2018-12-22T06:05:24.399Z,90.09
2018-12-22T06:07:53.228Z,90.16
2018-12-22T06:10:21.923Z,90.08
2018-12-22T06:12:50.766Z,88.99
2018-12-22T06:15:19.473Z,89.06
2018-12-22T06:17:48.208Z,89.11
2018-12-22T06:20:16.855Z,89.35
2018-12-22T06:22:45.532Z,89.38
2018-12-22T06:25:14.295Z,89.28
2018-12-22T06:27:42.985Z,89.60
2018-12-22T06:30:11.735Z,89.53
2018-12-22T06:32:40.452Z,89.12
2018-12-22T06:35:09.208Z,88.81
2018-12-22T06:37:37.947Z,88.95
2018-12-22T06:40:06.892Z,87.90
2018-12-22T06:42:35.618Z,87.94
2018-12-22T06:45:04.543Z,88.26
2018-12-22T06:47:33.212Z,88.74
2018-12-22T06:50:01.928Z,88.91
2018-12-22T06:52:30.673Z,88.46
2018-12-22T06:54:59.363Z,88.62
2018-12-22T06:57:28.268Z,88.60
2018-12-22T06:59:57.004Z,87.76
2018-12-22T07:02:25.750Z,86.82
2018-12-22T07:04:54.559Z,86.59
2018-12-22T07:07:23.361Z,86.97
2018-12-22T07:09:52.105Z,87.33
2018-12-22T07:12:20.844Z,86.68
2018-12-22T07:14:49.760Z,86.56
2018-12-22T07:17:18.557Z,86.97
2018-12-22T07:19:47.394Z,87.23
2018-12-22T07:22:16.135Z,87.93
2018-12-22T07:24:44.857Z,87.79
2018-12-22T07:27:13.679Z,87.54
2018-12-22T07:29:42.762Z,86.36
2018-12-22T07:32:11.552Z,86.93
2018-12-22T07:34:40.304Z,86.62
2018-12-22T07:37:09.051Z,86.11
2018-12-22T07:39:37.758Z,86.50
2018-12-22T07:42:06.551Z,86.50
2018-12-22T07:44:35.302Z,87.07
2018-12-22T07:47:04.613Z,87.40
2018-12-22T07:49:33.377Z,86.90
2018-12-22T07:52:02.157Z,86.91
2018-12-22T07:54:30.926Z,87.05
2018-12-22T07:56:59.657Z,86.73
2018-12-22T07:59:28.343Z,86.46
2018-12-22T08:01:57.108Z,86.23
2018-12-22T08:04:25.815Z,85.73
2018-12-22T08:06:54.543Z,84.38
2018-12-22T08:09:23.283Z,84.38
2018-12-22T08:11:51.980Z,83.62
2018-12-22T08:14:20.692Z,83.70
2018-12-22T08:16:49.519Z,84.34
2018-12-22T08:19:18.239Z,84.70
2018-12-22T08:21:46.936Z,84.47
2018-12-22T08:24:15.610Z,84.00
2018-12-22T08:26:44.291Z,83.03
2018-12-22T08:29:13.068Z,82.02
2018-12-22T08:31:41.812Z,81.02
2018-12-22T08:34:11.020Z,79.72
2018-12-22T08:36:40.070Z,77.80
2018-12-22T08:39:08.719Z,77.73
2018-12-22T08:41:37.498Z,78.35
2018-12-22T08:44:06.144Z,79.55
2018-12-22T08:46:34.921Z,79.71
2018-12-22T08:49:03.630Z,79.86
2018-12-22T08:51:32.361Z,80.04
2018-12-22T08:54:01.123Z,79.26
2018-12-22T08:56:29.958Z,78.51
2018-12-22T08:58:58.678Z,78.57
2018-12-22T09:01:27.397Z,78.66
2018-12-22T09:03:56.082Z,78.52
2018-12-22T09:06:24.962Z,78.38
2018-12-22T09:08:54.008Z,78.80
2018-12-22T09:11:22.925Z,78.62
2018-12-22T09:13:51.834Z,78.50
2018-12-22T09:16:20.563Z,78.28
2018-12-22T09:18:49.187Z,78.97
2018-12-22T09:21:17.967Z,79.90
2018-12-22T09:23:46.655Z,81.32
2018-12-22T09:26:15.369Z,81.77
2018-12-22T09:28:44.122Z,81.40
2018-12-22T09:31:12.938Z,80.35
2018-12-22T09:33:41.688Z,78.90
2018-12-22T09:36:10.524Z,80.23
2018-12-22T09:38:39.307Z,80.90
2018-12-22T09:41:08.137Z,80.65
2018-12-22T09:43:37.550Z,80.16
2018-12-22T09:46:06.453Z,77.51
2018-12-22T09:48:35.088Z,77.14
2018-12-22T09:51:03.829Z,78.38
2018-12-22T09:53:32.583Z,77.93
2018-12-22T09:56:01.324Z,78.13
2018-12-22T09:58:30.024Z,77.61
2018-12-22T10:00:59.000Z,78.01
2018-12-22T10:03:27.700Z,76.92
2018-12-22T10:05:56.409Z,76.51
2018-12-22T10:08:25.177Z,75.90
2018-12-22T10:10:53.854Z,76.35
2018-12-22T10:13:22.528Z,77.81
2018-12-22T10:15:51.257Z,78.17
2018-12-22T10:18:20.071Z,78.66
2018-12-22T10:20:49.572Z,76.82
2018-12-22T10:23:18.633Z,77.91
2018-12-22T10:25:47.300Z,75.20
2018-12-22T10:28:15.936Z,75.48
2018-12-22T10:30:44.687Z,75.04
2018-12-22T10:33:13.453Z,72.86
2018-12-22T10:35:42.294Z,69.58
2018-12-22T10:38:11.121Z,69.41
2018-12-22T10:40:39.828Z,70.67
2018-12-22T10:43:09.103Z,69.56
2018-12-22T10:45:38.058Z,68.02
2018-12-22T10:48:06.815Z,68.15
2018-12-22T10:50:35.591Z,65.98
2018-12-22T10:53:04.321Z,62.63
2018-12-22T10:55:33.074Z,62.26
2018-12-22T10:58:02.737Z,62.74
2018-12-22T11:00:32.121Z,61.99
2018-12-22T11:03:00.939Z,61.41
2018-12-22T11:05:29.672Z,61.07
2018-12-22T11:07:58.366Z,57.58
2018-12-22T11:10:27.918Z,58.64
2018-12-22T11:12:59.184Z,56.99
2018-12-22T11:15:27.948Z,57.29
2018-12-22T11:17:56.633Z,55.65
2018-12-22T11:20:25.316Z,52.53
2018-12-22T11:22:54.932Z,50.78
2018-12-22T11:25:26.156Z,51.35
2018-12-22T11:27:55.062Z,52.91
2018-12-22T11:30:32.453Z,49.44
2018-12-22T11:33:03.287Z,48.30
2018-12-22T11:35:31.916Z,44.06
2018-12-22T11:38:00.734Z,45.57
2018-12-22T11:40:29.430Z,44.19
2018-12-22T11:42:58.167Z,44.71
2018-12-22T11:45:26.984Z,44.01
2018-12-22T11:48:07.166Z,45.47
2018-12-22T11:50:35.957Z,45.51
2018-12-22T11:53:04.685Z,43.72
2018-12-22T11:55:33.484Z,46.93
2018-12-22T11:58:02.116Z,47.09
2018-12-22T12:00:30.886Z,46.08
2018-12-22T12:02:59.642Z,46.39
2018-12-22T12:05:28.396Z,43.90
2018-12-22T12:07:57.077Z,43.25
2018-12-22T12:10:25.984Z,41.59
2018-12-22T12:12:54.725Z,43.31
2018-12-22T12:15:26.244Z,44.03
2018-12-22T12:19:05.647Z,44.31
2018-12-22T12:21:34.410Z,41.93
2018-12-22T12:24:03.152Z,42.00
2018-12-22T12:26:31.792Z,41.15
2018-12-22T12:29:00.430Z,44.98
2018-12-22T12:31:29.281Z,43.65
2018-12-22T12:33:57.967Z,44.76
2018-12-22T12:36:26.837Z,43.08
2018-12-22T12:38:55.624Z,46.14
2018-12-22T12:41:24.400Z,46.10
2018-12-22T12:43:53.557Z,46.49
2018-12-22T12:46:23.454Z,46.13
2018-12-22T12:48:52.189Z,47.52
2018-12-22T12:51:20.995Z,48.38
2018-12-22T12:53:49.765Z,49.31
2018-12-22T12:56:18.545Z,49.14
2018-12-22T12:58:47.273Z,50.19
2018-12-22T13:01:24.374Z,51.48
2018-12-22T13:03:53.131Z,50.22
2018-12-22T13:06:22.001Z,50.35
2018-12-22T13:08:50.744Z,51.17
2018-12-22T13:11:19.473Z,53.10
2018-12-22T13:13:53.103Z,53.16
2018-12-22T13:16:21.988Z,55.80
2018-12-22T13:18:50.816Z,56.61
2018-12-22T13:21:19.590Z,57.10
2018-12-22T13:23:48.348Z,57.56
2018-12-22T13:26:17.196Z,60.25
2018-12-22T13:28:45.946Z,61.30
2018-12-22T13:31:16.532Z,61.03
2018-12-22T13:33:45.336Z,62.31
2018-12-22T13:36:14.052Z,64.54
2018-12-22T13:38:48.180Z,65.24
2018-12-22T13:41:16.943Z,65.62
2018-12-22T13:43:45.729Z,65.51
2018-12-22T13:46:14.423Z,66.70
2018-12-22T13:48:43.375Z,67.92
2018-12-22T13:51:12.185Z,68.40
2018-12-22T13:53:41.055Z,69.57
2018-12-22T13:56:09.801Z,70.49
2018-12-22T13:58:38.512Z,70.81
2018-12-22T14:01:10.478Z,71.39
2018-12-22T14:03:42.558Z,72.34
2018-12-22T14:06:19.447Z,73.09
2018-12-22T14:08:48.130Z,72.77
2018-12-22T14:11:16.882Z,73.86
2018-12-22T14:13:45.642Z,74.55
2018-12-22T14:16:21.404Z,74.40
2018-12-22T14:18:56.613Z,75.12
2018-12-22T14:21:25.582Z,75.28
2018-12-22T14:24:33.275Z,75.59
2018-12-22T14:27:02.023Z,76.94
2018-12-22T14:29:30.731Z,77.80
2018-12-22T14:31:59.497Z,78.42
2018-12-22T14:34:34.716Z,78.35
2018-12-22T14:37:03.741Z,78.26
2018-12-22T14:39:32.434Z,78.55
2018-12-22T14:42:01.249Z,79.06
2018-12-22T14:44:29.971Z,78.97
2018-12-22T14:46:59.641Z,79.34
2018-12-22T14:49:28.469Z,79.58
2018-12-22T14:51:57.098Z,79.78
2018-12-22T14:54:25.788Z,79.81
2018-12-22T14:56:54.556Z,79.86
2018-12-22T14:59:25.296Z,79.52
2018-12-22T15:01:57.167Z,80.46
2018-12-22T15:04:25.856Z,79.55
2018-12-22T15:06:54.646Z,79.72
2018-12-22T15:09:23.472Z,80.21
2018-12-22T15:11:52.184Z,80.25
2018-12-22T15:14:20.970Z,80.33
2018-12-22T15:16:49.869Z,80.56
2018-12-22T15:19:18.596Z,80.46
2018-12-22T15:21:50.273Z,80.93
2018-12-22T15:24:18.904Z,80.67
2018-12-22T15:26:47.704Z,81.32
2018-12-22T15:29:16.457Z,81.28
2018-12-22T15:31:45.161Z,81.38
2018-12-22T15:34:13.967Z,81.60
2018-12-22T15:36:42.751Z,81.54
2018-12-22T15:39:11.495Z,81.90
2018-12-22T15:41:40.287Z,82.27
2018-12-22T15:44:08.988Z,82.00
2018-12-22T15:46:37.715Z,81.91
2018-12-22T15:49:06.407Z,82.18
2018-12-22T15:51:35.139Z,82.90
2018-12-22T15:54:03.999Z,82.62
2018-12-22T15:56:32.764Z,82.94
2018-12-22T15:59:01.495Z,83.17
2018-12-22T16:01:30.266Z,83.46
2018-12-22T16:03:59.077Z,83.51
2018-12-22T16:06:28.201Z,84.08
2018-12-22T16:08:56.925Z,84.55
2018-12-22T16:11:25.685Z,84.93
2018-12-22T16:13:54.464Z,85.03
2018-12-22T16:16:24.792Z,85.00
2018-12-22T16:18:53.828Z,85.16
2018-12-22T16:21:22.581Z,84.76
2018-12-22T16:23:51.353Z,84.55
2018-12-22T16:26:20.026Z,84.73
2018-12-22T16:28:56.222Z,85.03
2018-12-22T16:31:25.034Z,84.77
2018-12-22T16:33:53.870Z,85.44
2018-12-22T16:36:22.720Z,85.55
2018-12-22T16:38:51.579Z,85.71
2018-12-22T16:41:20.546Z,85.70
2018-12-22T16:43:49.980Z,85.17
2018-12-22T16:46:18.861Z,85.03
2018-12-22T16:48:48.013Z,85.81
2018-12-22T16:51:17.042Z,85.16
2018-12-22T16:53:45.868Z,85.77
2018-12-22T16:56:14.664Z,85.64
2018-12-22T16:58:46.313Z,86.25
2018-12-22T17:01:45.158Z,86.13
2018-12-22T17:04:13.861Z,86.07
2018-12-22T17:06:42.894Z,86.11
2018-12-22T17:09:11.732Z,86.23
2018-12-22T17:11:40.598Z,85.79
2018-12-22T17:14:09.319Z,85.82
2018-12-22T17:16:38.140Z,86.11
2018-12-22T17:19:06.983Z,86.20
2018-12-22T17:22:51.073Z,86.51
2018-12-22T17:25:26.257Z,86.93
2018-12-22T17:27:55.045Z,86.99
2018-12-22T17:30:23.782Z,86.39
2018-12-22T17:32:52.622Z,86.83
2018-12-22T17:35:21.378Z,86.96
2018-12-22T17:37:51.298Z,87.12
2018-12-22T17:40:20.073Z,87.70
2018-12-22T17:42:49.799Z,88.03
2018-12-22T17:45:18.551Z,88.16
2018-12-22T17:47:48.492Z,87.41
2018-12-22T17:50:17.236Z,87.52
2018-12-22T17:52:45.964Z,87.37
2018-12-22T17:55:14.696Z,87.58
2018-12-22T17:57:43.513Z,87.51
2018-12-22T18:00:13.314Z,87.16
2018-12-22T18:02:43.583Z,87.16
2018-12-22T18:05:12.390Z,87.00
2018-12-22T18:07:41.112Z,86.95
2018-12-22T18:10:10.579Z,87.72
2018-12-22T18:12:39.377Z,87.75
2018-12-22T18:15:11.818Z,87.52
2018-12-22T18:17:40.592Z,87.98
2018-12-22T18:20:10.242Z,87.64
2018-12-22T18:22:38.968Z,87.55
2018-12-22T18:25:10.220Z,87.65
2018-12-22T18:27:38.997Z,86.56
2018-12-22T18:30:10.455Z,86.64
2018-12-22T18:32:39.317Z,86.60
2018-12-22T18:35:10.416Z,86.96
2018-12-22T18:37:39.402Z,87.20
2018-12-22T18:40:11.692Z,87.37
2018-12-22T18:42:40.893Z,87.63
2018-12-22T18:45:11.469Z,88.54
2018-12-22T18:47:40.631Z,88.37
2018-12-22T18:50:14.979Z,88.25
2018-12-22T18:52:43.948Z,88.21
2018-12-22T18:55:13.470Z,87.71
2018-12-22T18:57:42.525Z,88.44
2018-12-22T19:00:16.408Z,88.65
2018-12-22T19:02:45.218Z,88.21
2018-12-22T19:05:14.672Z,88.23
2018-12-22T19:07:43.377Z,88.43
2018-12-22T19:10:20.263Z,88.24
2018-12-22T19:12:50.038Z,87.37
2018-12-22T19:15:18.845Z,87.38
2018-12-22T19:17:47.813Z,87.25
2018-12-22T19:20:21.024Z,86.82
2018-12-22T19:22:50.293Z,87.17
2018-12-22T19:25:19.256Z,87.87
2018-12-22T19:27:48.068Z,88.71
2018-12-22T19:30:16.845Z,89.05
2018-12-22T19:32:45.619Z,88.64
2018-12-22T19:35:14.302Z,89.21
2018-12-22T19:37:42.975Z,89.05
2018-12-22T19:40:11.809Z,89.05
2018-12-22T19:42:40.677Z,89.46
2018-12-22T19:45:09.541Z,89.21
2018-12-22T19:47:38.289Z,89.23
2018-12-22T19:50:07.324Z,88.90
2018-12-22T19:52:36.107Z,88.61
2018-12-22T19:55:05.401Z,88.77
2018-12-22T19:57:34.166Z,88.74
2018-12-22T20:00:03.049Z,88.59
2018-12-22T20:02:31.788Z,89.04
2018-12-22T20:05:00.573Z,89.19
2018-12-22T20:07:29.300Z,89.36
2018-12-22T20:09:58.152Z,89.19
2018-12-22T20:12:26.860Z,89.34
2018-12-22T20:14:55.587Z,89.63
2018-12-22T20:17:24.362Z,89.48
2018-12-22T20:19:53.080Z,89.69
2018-12-22T20:22:21.828Z,88.91
2018-12-22T20:24:50.523Z,89.17
2018-12-22T20:27:19.264Z,89.00
2018-12-22T20:29:47.929Z,89.14
2018-12-22T20:32:16.675Z,89.01
2018-12-22T20:34:45.416Z,88.76
2018-12-22T20:37:14.122Z,87.67
2018-12-22T20:39:43.028Z,87.66
2018-12-22T20:42:11.788Z,87.71
2018-12-22T20:44:40.641Z,87.93
2018-12-22T20:47:09.329Z,87.92
2018-12-22T20:49:38.104Z,88.37
2018-12-22T20:52:06.919Z,88.21
2018-12-22T20:54:35.683Z,87.73
2018-12-22T20:57:04.516Z,87.55
2018-12-22T20:59:33.368Z,86.84
2018-12-22T21:02:02.752Z,84.55
2018-12-22T21:04:31.573Z,81.34
2018-12-22T21:07:00.394Z,80.17
2018-12-22T21:09:29.123Z,78.98
2018-12-22T21:11:57.827Z,78.54
2018-12-22T21:14:26.585Z,78.45
2018-12-22T21:16:55.317Z,78.36
2018-12-22T21:19:24.177Z,74.84
2018-12-22T21:21:52.948Z,76.49
2018-12-22T21:24:21.653Z,77.45
2018-12-22T21:26:50.399Z,78.65
2018-12-22T21:29:19.128Z,80.34
2018-12-22T21:31:47.927Z,82.49
2018-12-22T21:34:16.702Z,85.39
2018-12-22T21:36:52.056Z,86.10
2018-12-22T21:39:20.825Z,85.72
2018-12-22T21:41:49.659Z,86.05
2018-12-22T21:44:18.384Z,86.54
2018-12-22T21:46:47.091Z,86.81
2018-12-22T21:49:15.830Z,87.02
2018-12-22T21:51:44.473Z,86.86
2018-12-22T21:54:13.159Z,85.28
2018-12-22T21:56:41.802Z,83.63
2018-12-22T21:59:10.597Z,80.11
2018-12-22T22:01:39.418Z,77.20
2018-12-22T22:04:08.134Z,75.23
2018-12-22T22:06:38.013Z,74.03
2018-12-22T22:09:07.278Z,72.32
2018-12-22T22:11:35.966Z,71.93
2018-12-22T22:14:04.588Z,70.83
2018-12-22T22:16:33.252Z,70.08
2018-12-22T22:19:01.889Z,69.09
2018-12-22T22:21:30.743Z,69.33
2018-12-22T22:23:59.423Z,69.26
2018-12-22T22:26:28.233Z,69.23
2018-12-22T22:28:56.899Z,69.07
2018-12-22T22:31:25.513Z,68.17
2018-12-22T22:33:54.184Z,68.23
2018-12-22T22:36:22.976Z,67.65
2018-12-22T22:38:51.641Z,67.73
2018-12-22T22:41:20.355Z,68.43
2018-12-22T22:43:49.140Z,66.94
2018-12-22T22:46:17.944Z,67.20
2018-12-22T22:48:46.634Z,67.21
2018-12-22T22:51:15.361Z,66.92
2018-12-22T22:53:43.993Z,66.64
2018-12-22T22:56:12.722Z,66.18
2018-12-22T22:58:41.449Z,66.17
2018-12-22T23:01:10.355Z,66.39
2018-12-22T23:03:39.057Z,66.40
2018-12-22T23:06:07.866Z,66.60
2018-12-22T23:08:36.682Z,67.79
2018-12-22T23:11:05.453Z,68.38
2018-12-22T23:13:34.192Z,69.20
2018-12-22T23:16:02.845Z,69.97
2018-12-22T23:18:31.526Z,71.04
2018-12-22T23:21:00.241Z,70.83
2018-12-22T23:23:28.982Z,71.57
2018-12-22T23:25:57.595Z,71.21
2018-12-22T23:28:26.391Z,71.44
2018-12-22T23:30:55.135Z,72.46
2018-12-22T23:33:23.928Z,72.92
2018-12-22T23:35:52.710Z,73.29
2018-12-22T23:38:21.573Z,73.45
2018-12-22T23:40:50.224Z,73.87
2018-12-22T23:43:18.918Z,73.86
2018-12-22T23:45:47.673Z,74.58
2018-12-22T23:48:16.408Z,75.31
2018-12-22T23:50:45.254Z,75.25
2018-12-22T23:53:14.138Z,76.14
2018-12-22T23:55:42.932Z,76.24
2018-12-22T23:58:11.833Z,75.74
